sensor_id;sensor_type;location;lat;lon;timestamp;P1;durP1;ratioP1;P2;durP2;ratioP2
77800;SDS011;66991;50.058;14.454;2023-11-21T00:00:50;2.75;;;1.30;;
77800;SDS011;66991;50.058;14.454;2023-11-21T00:03:16;3.95;;;1.50;;
77800;SDS011;66991;50.058;14.454;2023-11-21T00:05:41;4.50;;;1.35;;
77800;SDS011;66991;50.058;14.454;2023-11-21T00:08:09;2.85;;;1.45;;
77800;SDS011;66991;50.058;14.454;2023-11-21T00:10:35;2.85;;;1.20;;
77800;SDS011;66991;50.058;14.454;2023-11-21T00:13:03;3.65;;;1.35;;
77800;SDS011;66991;50.058;14.454;2023-11-21T00:15:29;3.03;;;1.10;;
77800;SDS011;66991;50.058;14.454;2023-11-21T00:17:54;2.40;;;1.17;;
77800;SDS011;66991;50.058;14.454;2023-11-21T00:20:20;3.03;;;1.02;;
77800;SDS011;66991;50.058;14.454;2023-11-21T00:22:46;3.92;;;1.52;;
77800;SDS011;66991;50.058;14.454;2023-11-21T00:25:12;4.63;;;1.63;;
77800;SDS011;66991;50.058;14.454;2023-11-21T00:27:40;3.50;;;1.40;;
77800;SDS011;66991;50.058;14.454;2023-11-21T00:30:06;2.95;;;1.33;;
77800;SDS011;66991;50.058;14.454;2023-11-21T00:32:32;2.85;;;1.40;;
77800;SDS011;66991;50.058;14.454;2023-11-21T00:34:57;2.45;;;1.25;;
77800;SDS011;66991;50.058;14.454;2023-11-21T00:37:24;3.63;;;1.40;;
77800;SDS011;66991;50.058;14.454;2023-11-21T00:39:49;3.28;;;1.20;;
77800;SDS011;66991;50.058;14.454;2023-11-21T00:42:15;4.13;;;1.10;;
77800;SDS011;66991;50.058;14.454;2023-11-21T00:44:40;2.70;;;1.20;;
77800;SDS011;66991;50.058;14.454;2023-11-21T00:47:06;3.78;;;1.52;;
77800;SDS011;66991;50.058;14.454;2023-11-21T00:49:33;4.28;;;1.50;;
77800;SDS011;66991;50.058;14.454;2023-11-21T00:51:58;4.50;;;1.20;;
77800;SDS011;66991;50.058;14.454;2023-11-21T00:54:23;3.58;;;1.23;;
77800;SDS011;66991;50.058;14.454;2023-11-21T00:56:49;3.90;;;1.23;;
77800;SDS011;66991;50.058;14.454;2023-11-21T00:59:14;2.65;;;1.33;;
77800;SDS011;66991;50.058;14.454;2023-11-21T01:01:39;4.78;;;1.27;;
77800;SDS011;66991;50.058;14.454;2023-11-21T01:04:05;3.45;;;1.30;;
77800;SDS011;66991;50.058;14.454;2023-11-21T01:06:31;1.73;;;1.00;;
77800;SDS011;66991;50.058;14.454;2023-11-21T01:08:57;3.42;;;1.20;;
77800;SDS011;66991;50.058;14.454;2023-11-21T01:11:23;3.75;;;1.33;;
77800;SDS011;66991;50.058;14.454;2023-11-21T01:13:48;3.88;;;1.30;;
77800;SDS011;66991;50.058;14.454;2023-11-21T01:16:13;3.70;;;1.27;;
77800;SDS011;66991;50.058;14.454;2023-11-21T01:18:39;3.30;;;1.20;;
77800;SDS011;66991;50.058;14.454;2023-11-21T01:21:04;2.67;;;1.27;;
77800;SDS011;66991;50.058;14.454;2023-11-21T01:23:29;3.78;;;1.10;;
77800;SDS011;66991;50.058;14.454;2023-11-21T01:25:55;2.38;;;1.10;;
77800;SDS011;66991;50.058;14.454;2023-11-21T01:28:21;1.58;;;0.93;;
77800;SDS011;66991;50.058;14.454;2023-11-21T01:30:47;2.10;;;1.08;;
77800;SDS011;66991;50.058;14.454;2023-11-21T01:33:13;3.67;;;1.30;;
77800;SDS011;66991;50.058;14.454;2023-11-21T01:35:40;1.58;;;1.00;;
77800;SDS011;66991;50.058;14.454;2023-11-21T01:38:08;3.78;;;1.63;;
77800;SDS011;66991;50.058;14.454;2023-11-21T01:40:33;2.42;;;1.17;;
77800;SDS011;66991;50.058;14.454;2023-11-21T01:42:59;2.72;;;1.10;;
77800;SDS011;66991;50.058;14.454;2023-11-21T01:45:25;2.88;;;1.30;;
77800;SDS011;66991;50.058;14.454;2023-11-21T01:47:50;5.10;;;1.00;;
77800;SDS011;66991;50.058;14.454;2023-11-21T01:50:16;1.80;;;1.10;;
77800;SDS011;66991;50.058;14.454;2023-11-21T01:52:43;2.10;;;1.10;;
77800;SDS011;66991;50.058;14.454;2023-11-21T01:55:09;2.72;;;1.30;;
77800;SDS011;66991;50.058;14.454;2023-11-21T01:57:35;2.22;;;1.05;;
77800;SDS011;66991;50.058;14.454;2023-11-21T02:00:02;5.18;;;1.38;;
77800;SDS011;66991;50.058;14.454;2023-11-21T02:02:40;2.10;;;1.00;;
77800;SDS011;66991;50.058;14.454;2023-11-21T02:05:15;3.85;;;1.10;;
77800;SDS011;66991;50.058;14.454;2023-11-21T02:07:43;3.90;;;1.20;;
77800;SDS011;66991;50.058;14.454;2023-11-21T02:10:09;3.17;;;1.40;;
77800;SDS011;66991;50.058;14.454;2023-11-21T02:12:34;3.78;;;1.60;;
77800;SDS011;66991;50.058;14.454;2023-11-21T02:15:03;3.50;;;1.13;;
77800;SDS011;66991;50.058;14.454;2023-11-21T02:17:39;2.92;;;1.33;;
77800;SDS011;66991;50.058;14.454;2023-11-21T02:20:19;2.85;;;1.25;;
77800;SDS011;66991;50.058;14.454;2023-11-21T02:22:51;2.90;;;1.02;;
77800;SDS011;66991;50.058;14.454;2023-11-21T02:25:32;2.90;;;1.30;;
77800;SDS011;66991;50.058;14.454;2023-11-21T02:27:59;2.78;;;1.20;;
77800;SDS011;66991;50.058;14.454;2023-11-21T02:30:26;4.95;;;1.27;;
77800;SDS011;66991;50.058;14.454;2023-11-21T02:32:53;2.40;;;1.20;;
77800;SDS011;66991;50.058;14.454;2023-11-21T02:35:19;2.45;;;1.40;;
77800;SDS011;66991;50.058;14.454;2023-11-21T02:37:47;4.00;;;1.40;;
77800;SDS011;66991;50.058;14.454;2023-11-21T02:40:13;3.70;;;1.38;;
77800;SDS011;66991;50.058;14.454;2023-11-21T02:42:42;3.83;;;1.20;;
77800;SDS011;66991;50.058;14.454;2023-11-21T02:45:12;5.43;;;1.10;;
77800;SDS011;66991;50.058;14.454;2023-11-21T02:47:41;6.80;;;1.35;;
77800;SDS011;66991;50.058;14.454;2023-11-21T02:50:07;3.78;;;1.23;;
77800;SDS011;66991;50.058;14.454;2023-11-21T02:52:34;3.17;;;1.20;;
77800;SDS011;66991;50.058;14.454;2023-11-21T02:55:00;3.22;;;1.30;;
77800;SDS011;66991;50.058;14.454;2023-11-21T02:57:25;3.25;;;0.90;;
77800;SDS011;66991;50.058;14.454;2023-11-21T02:59:50;4.28;;;1.42;;
77800;SDS011;66991;50.058;14.454;2023-11-21T03:02:16;2.33;;;1.25;;
77800;SDS011;66991;50.058;14.454;2023-11-21T03:04:41;2.72;;;1.38;;
77800;SDS011;66991;50.058;14.454;2023-11-21T03:07:07;5.35;;;1.15;;
77800;SDS011;66991;50.058;14.454;2023-11-21T03:09:33;2.28;;;1.20;;
77800;SDS011;66991;50.058;14.454;2023-11-21T03:11:59;2.30;;;0.95;;
77800;SDS011;66991;50.058;14.454;2023-11-21T03:14:24;2.17;;;1.15;;
77800;SDS011;66991;50.058;14.454;2023-11-21T03:16:49;4.93;;;1.33;;
77800;SDS011;66991;50.058;14.454;2023-11-21T03:19:15;2.50;;;1.10;;
77800;SDS011;66991;50.058;14.454;2023-11-21T03:21:40;1.90;;;1.08;;
77800;SDS011;66991;50.058;14.454;2023-11-21T03:24:06;2.17;;;1.20;;
77800;SDS011;66991;50.058;14.454;2023-11-21T03:26:32;5.07;;;1.60;;
77800;SDS011;66991;50.058;14.454;2023-11-21T03:28:58;2.20;;;1.00;;
77800;SDS011;66991;50.058;14.454;2023-11-21T03:31:23;6.20;;;1.23;;
77800;SDS011;66991;50.058;14.454;2023-11-21T03:33:48;3.67;;;1.25;;
77800;SDS011;66991;50.058;14.454;2023-11-21T03:36:14;4.53;;;1.17;;
77800;SDS011;66991;50.058;14.454;2023-11-21T03:38:43;2.33;;;1.00;;
77800;SDS011;66991;50.058;14.454;2023-11-21T03:41:08;3.85;;;1.00;;
77800;SDS011;66991;50.058;14.454;2023-11-21T03:43:37;2.35;;;1.20;;
77800;SDS011;66991;50.058;14.454;2023-11-21T03:46:02;3.72;;;1.13;;
77800;SDS011;66991;50.058;14.454;2023-11-21T03:48:28;1.83;;;1.00;;
77800;SDS011;66991;50.058;14.454;2023-11-21T03:50:53;3.47;;;1.30;;
77800;SDS011;66991;50.058;14.454;2023-11-21T03:53:19;2.38;;;1.35;;
77800;SDS011;66991;50.058;14.454;2023-11-21T03:55:44;2.63;;;1.35;;
77800;SDS011;66991;50.058;14.454;2023-11-21T03:58:09;2.17;;;1.42;;
77800;SDS011;66991;50.058;14.454;2023-11-21T04:00:34;3.58;;;1.40;;
77800;SDS011;66991;50.058;14.454;2023-11-21T04:03:00;5.13;;;1.60;;
77800;SDS011;66991;50.058;14.454;2023-11-21T04:05:25;3.10;;;1.30;;
77800;SDS011;66991;50.058;14.454;2023-11-21T04:07:50;2.67;;;1.10;;
77800;SDS011;66991;50.058;14.454;2023-11-21T04:10:16;4.00;;;1.20;;
77800;SDS011;66991;50.058;14.454;2023-11-21T04:12:42;2.40;;;1.50;;
77800;SDS011;66991;50.058;14.454;2023-11-21T04:15:08;3.28;;;1.30;;
77800;SDS011;66991;50.058;14.454;2023-11-21T04:17:34;2.08;;;1.13;;
77800;SDS011;66991;50.058;14.454;2023-11-21T04:19:59;2.47;;;1.00;;
77800;SDS011;66991;50.058;14.454;2023-11-21T04:22:25;4.45;;;1.30;;
77800;SDS011;66991;50.058;14.454;2023-11-21T04:24:50;3.63;;;1.52;;
77800;SDS011;66991;50.058;14.454;2023-11-21T04:27:16;2.75;;;1.33;;
77800;SDS011;66991;50.058;14.454;2023-11-21T04:29:45;2.90;;;1.10;;
77800;SDS011;66991;50.058;14.454;2023-11-21T04:32:10;3.05;;;1.27;;
77800;SDS011;66991;50.058;14.454;2023-11-21T04:34:35;6.18;;;1.52;;
77800;SDS011;66991;50.058;14.454;2023-11-21T04:37:01;4.53;;;1.00;;
77800;SDS011;66991;50.058;14.454;2023-11-21T04:39:26;2.95;;;1.02;;
77800;SDS011;66991;50.058;14.454;2023-11-21T04:41:52;4.97;;;1.40;;
77800;SDS011;66991;50.058;14.454;2023-11-21T04:44:17;4.60;;;1.40;;
77800;SDS011;66991;50.058;14.454;2023-11-21T04:46:42;2.22;;;1.23;;
77800;SDS011;66991;50.058;14.454;2023-11-21T04:49:08;2.85;;;1.20;;
77800;SDS011;66991;50.058;14.454;2023-11-21T04:51:34;2.92;;;1.30;;
77800;SDS011;66991;50.058;14.454;2023-11-21T04:53:59;2.60;;;1.30;;
77800;SDS011;66991;50.058;14.454;2023-11-21T04:56:24;2.60;;;1.27;;
77800;SDS011;66991;50.058;14.454;2023-11-21T04:58:50;4.70;;;1.30;;
77800;SDS011;66991;50.058;14.454;2023-11-21T05:01:15;6.20;;;1.60;;
77800;SDS011;66991;50.058;14.454;2023-11-21T05:03:41;2.85;;;1.25;;
77800;SDS011;66991;50.058;14.454;2023-11-21T05:06:06;3.08;;;1.30;;
77800;SDS011;66991;50.058;14.454;2023-11-21T05:08:34;3.95;;;1.33;;
77800;SDS011;66991;50.058;14.454;2023-11-21T05:10:59;4.35;;;1.67;;
77800;SDS011;66991;50.058;14.454;2023-11-21T05:13:25;3.95;;;1.30;;
77800;SDS011;66991;50.058;14.454;2023-11-21T05:15:53;7.30;;;1.42;;
77800;SDS011;66991;50.058;14.454;2023-11-21T05:18:24;2.70;;;1.13;;
77800;SDS011;66991;50.058;14.454;2023-11-21T05:20:54;3.42;;;1.30;;
77800;SDS011;66991;50.058;14.454;2023-11-21T05:23:20;1.75;;;1.10;;
77800;SDS011;66991;50.058;14.454;2023-11-21T05:25:45;5.85;;;2.03;;
77800;SDS011;66991;50.058;14.454;2023-11-21T05:28:11;4.38;;;1.40;;
77800;SDS011;66991;50.058;14.454;2023-11-21T05:30:37;5.30;;;1.27;;
77800;SDS011;66991;50.058;14.454;2023-11-21T05:33:04;2.55;;;1.10;;
77800;SDS011;66991;50.058;14.454;2023-11-21T05:35:29;3.30;;;1.50;;
77800;SDS011;66991;50.058;14.454;2023-11-21T05:37:54;3.15;;;1.42;;
77800;SDS011;66991;50.058;14.454;2023-11-21T05:40:20;3.03;;;1.20;;
77800;SDS011;66991;50.058;14.454;2023-11-21T05:42:47;3.30;;;1.30;;
77800;SDS011;66991;50.058;14.454;2023-11-21T05:45:13;3.22;;;1.25;;
77800;SDS011;66991;50.058;14.454;2023-11-21T05:47:39;2.60;;;1.25;;
77800;SDS011;66991;50.058;14.454;2023-11-21T05:50:06;5.53;;;1.20;;
77800;SDS011;66991;50.058;14.454;2023-11-21T05:52:35;3.00;;;1.33;;
77800;SDS011;66991;50.058;14.454;2023-11-21T05:55:04;3.08;;;1.33;;
77800;SDS011;66991;50.058;14.454;2023-11-21T05:57:32;3.03;;;1.30;;
77800;SDS011;66991;50.058;14.454;2023-11-21T06:02:36;2.15;;;1.20;;
77800;SDS011;66991;50.058;14.454;2023-11-21T06:05:04;3.35;;;1.30;;
77800;SDS011;66991;50.058;14.454;2023-11-21T06:07:31;3.40;;;1.20;;
77800;SDS011;66991;50.058;14.454;2023-11-21T06:09:56;2.90;;;1.00;;
77800;SDS011;66991;50.058;14.454;2023-11-21T06:12:22;2.97;;;1.27;;
77800;SDS011;66991;50.058;14.454;2023-11-21T06:14:47;3.80;;;1.10;;
77800;SDS011;66991;50.058;14.454;2023-11-21T06:17:13;2.65;;;1.23;;
77800;SDS011;66991;50.058;14.454;2023-11-21T06:19:38;6.13;;;1.02;;
77800;SDS011;66991;50.058;14.454;2023-11-21T06:22:04;2.88;;;1.10;;
77800;SDS011;66991;50.058;14.454;2023-11-21T06:24:29;2.53;;;1.10;;
77800;SDS011;66991;50.058;14.454;2023-11-21T06:26:54;2.15;;;0.98;;
77800;SDS011;66991;50.058;14.454;2023-11-21T06:29:19;2.40;;;1.00;;
77800;SDS011;66991;50.058;14.454;2023-11-21T06:31:45;2.53;;;1.08;;
77800;SDS011;66991;50.058;14.454;2023-11-21T06:34:11;2.55;;;1.20;;
77800;SDS011;66991;50.058;14.454;2023-11-21T06:36:37;2.15;;;1.10;;
77800;SDS011;66991;50.058;14.454;2023-11-21T06:39:02;2.85;;;1.27;;
77800;SDS011;66991;50.058;14.454;2023-11-21T06:41:31;4.93;;;1.10;;
77800;SDS011;66991;50.058;14.454;2023-11-21T06:43:57;2.45;;;1.10;;
77800;SDS011;66991;50.058;14.454;2023-11-21T06:46:24;3.08;;;1.50;;
77800;SDS011;66991;50.058;14.454;2023-11-21T06:48:49;3.83;;;1.48;;
77800;SDS011;66991;50.058;14.454;2023-11-21T06:51:15;2.85;;;1.40;;
77800;SDS011;66991;50.058;14.454;2023-11-21T06:53:40;2.75;;;1.17;;
77800;SDS011;66991;50.058;14.454;2023-11-21T06:56:14;4.68;;;1.45;;
77800;SDS011;66991;50.058;14.454;2023-11-21T06:58:40;2.45;;;1.27;;
77800;SDS011;66991;50.058;14.454;2023-11-21T07:01:06;9.00;;;1.55;;
77800;SDS011;66991;50.058;14.454;2023-11-21T07:03:31;3.15;;;1.40;;
77800;SDS011;66991;50.058;14.454;2023-11-21T07:05:56;4.28;;;1.23;;
77800;SDS011;66991;50.058;14.454;2023-11-21T07:08:22;3.80;;;1.63;;
77800;SDS011;66991;50.058;14.454;2023-11-21T07:10:47;2.53;;;1.20;;
77800;SDS011;66991;50.058;14.454;2023-11-21T07:13:13;2.15;;;0.90;;
77800;SDS011;66991;50.058;14.454;2023-11-21T07:15:38;4.18;;;1.20;;
77800;SDS011;66991;50.058;14.454;2023-11-21T07:18:03;3.30;;;1.25;;
77800;SDS011;66991;50.058;14.454;2023-11-21T07:20:28;2.72;;;1.15;;
77800;SDS011;66991;50.058;14.454;2023-11-21T07:22:55;4.10;;;1.52;;
77800;SDS011;66991;50.058;14.454;2023-11-21T07:25:21;3.95;;;1.27;;
77800;SDS011;66991;50.058;14.454;2023-11-21T07:27:47;3.45;;;1.38;;
77800;SDS011;66991;50.058;14.454;2023-11-21T07:30:12;3.53;;;1.30;;
77800;SDS011;66991;50.058;14.454;2023-11-21T07:32:38;2.03;;;1.10;;
77800;SDS011;66991;50.058;14.454;2023-11-21T07:35:04;3.13;;;1.40;;
77800;SDS011;66991;50.058;14.454;2023-11-21T07:37:30;3.33;;;1.50;;
77800;SDS011;66991;50.058;14.454;2023-11-21T07:39:55;5.35;;;1.52;;
77800;SDS011;66991;50.058;14.454;2023-11-21T07:42:22;3.58;;;1.63;;
77800;SDS011;66991;50.058;14.454;2023-11-21T07:44:49;4.57;;;1.65;;
77800;SDS011;66991;50.058;14.454;2023-11-21T07:47:15;3.42;;;1.50;;
77800;SDS011;66991;50.058;14.454;2023-11-21T07:49:40;2.47;;;1.50;;
77800;SDS011;66991;50.058;14.454;2023-11-21T07:52:08;3.63;;;1.50;;
77800;SDS011;66991;50.058;14.454;2023-11-21T07:54:34;4.07;;;1.48;;
77800;SDS011;66991;50.058;14.454;2023-11-21T07:57:00;2.83;;;1.50;;
77800;SDS011;66991;50.058;14.454;2023-11-21T07:59:26;2.55;;;1.35;;
77800;SDS011;66991;50.058;14.454;2023-11-21T08:01:51;3.83;;;1.73;;
77800;SDS011;66991;50.058;14.454;2023-11-21T08:04:16;3.30;;;1.60;;
77800;SDS011;66991;50.058;14.454;2023-11-21T08:06:42;5.60;;;1.60;;
77800;SDS011;66991;50.058;14.454;2023-11-21T08:09:07;4.68;;;1.80;;
77800;SDS011;66991;50.058;14.454;2023-11-21T08:11:33;2.47;;;1.30;;
77800;SDS011;66991;50.058;14.454;2023-11-21T08:13:59;3.33;;;1.48;;
77800;SDS011;66991;50.058;14.454;2023-11-21T08:16:24;3.28;;;1.33;;
77800;SDS011;66991;50.058;14.454;2023-11-21T08:18:50;3.05;;;1.70;;
77800;SDS011;66991;50.058;14.454;2023-11-21T08:21:16;4.40;;;1.27;;
77800;SDS011;66991;50.058;14.454;2023-11-21T08:23:41;3.15;;;1.33;;
77800;SDS011;66991;50.058;14.454;2023-11-21T08:26:07;3.85;;;1.35;;
77800;SDS011;66991;50.058;14.454;2023-11-21T08:28:33;4.70;;;1.60;;
77800;SDS011;66991;50.058;14.454;2023-11-21T08:31:00;3.80;;;1.63;;
77800;SDS011;66991;50.058;14.454;2023-11-21T08:33:26;3.35;;;1.63;;
77800;SDS011;66991;50.058;14.454;2023-11-21T08:35:51;4.82;;;1.65;;
77800;SDS011;66991;50.058;14.454;2023-11-21T08:38:16;2.78;;;1.58;;
77800;SDS011;66991;50.058;14.454;2023-11-21T08:40:42;4.75;;;1.90;;
77800;SDS011;66991;50.058;14.454;2023-11-21T08:43:08;3.00;;;1.60;;
77800;SDS011;66991;50.058;14.454;2023-11-21T08:45:33;3.78;;;1.60;;
77800;SDS011;66991;50.058;14.454;2023-11-21T08:47:59;6.90;;;1.77;;
77800;SDS011;66991;50.058;14.454;2023-11-21T08:50:25;4.28;;;1.20;;
77800;SDS011;66991;50.058;14.454;2023-11-21T08:52:50;3.30;;;1.30;;
77800;SDS011;66991;50.058;14.454;2023-11-21T08:55:16;2.75;;;1.50;;
77800;SDS011;66991;50.058;14.454;2023-11-21T08:57:43;2.42;;;1.30;;
77800;SDS011;66991;50.058;14.454;2023-11-21T09:00:09;5.78;;;1.35;;
77800;SDS011;66991;50.058;14.454;2023-11-21T09:02:40;4.25;;;2.13;;
77800;SDS011;66991;50.058;14.454;2023-11-21T09:05:12;3.58;;;1.52;;
77800;SDS011;66991;50.058;14.454;2023-11-21T09:07:41;4.28;;;1.67;;
77800;SDS011;66991;50.058;14.454;2023-11-21T09:10:07;3.00;;;1.40;;
77800;SDS011;66991;50.058;14.454;2023-11-21T09:12:34;3.55;;;1.30;;
77800;SDS011;66991;50.058;14.454;2023-11-21T09:15:04;2.55;;;1.50;;
77800;SDS011;66991;50.058;14.454;2023-11-21T09:17:30;3.75;;;2.00;;
77800;SDS011;66991;50.058;14.454;2023-11-21T09:19:56;4.20;;;1.67;;
77800;SDS011;66991;50.058;14.454;2023-11-21T09:22:22;6.88;;;1.52;;
77800;SDS011;66991;50.058;14.454;2023-11-21T09:24:49;3.40;;;1.48;;
77800;SDS011;66991;50.058;14.454;2023-11-21T09:27:15;3.38;;;1.40;;
77800;SDS011;66991;50.058;14.454;2023-11-21T09:29:40;2.63;;;1.38;;
77800;SDS011;66991;50.058;14.454;2023-11-21T09:32:05;5.80;;;1.70;;
77800;SDS011;66991;50.058;14.454;2023-11-21T09:34:35;2.78;;;1.27;;
77800;SDS011;66991;50.058;14.454;2023-11-21T09:37:03;2.78;;;1.38;;
77800;SDS011;66991;50.058;14.454;2023-11-21T09:39:32;5.45;;;1.42;;
77800;SDS011;66991;50.058;14.454;2023-11-21T09:42:01;5.28;;;1.70;;
77800;SDS011;66991;50.058;14.454;2023-11-21T09:44:35;2.50;;;1.40;;
77800;SDS011;66991;50.058;14.454;2023-11-21T09:47:04;2.60;;;1.50;;
77800;SDS011;66991;50.058;14.454;2023-11-21T09:49:35;5.35;;;2.13;;
77800;SDS011;66991;50.058;14.454;2023-11-21T09:52:01;6.72;;;1.65;;
77800;SDS011;66991;50.058;14.454;2023-11-21T09:54:28;4.03;;;1.90;;
77800;SDS011;66991;50.058;14.454;2023-11-21T09:56:54;5.68;;;2.00;;
77800;SDS011;66991;50.058;14.454;2023-11-21T09:59:20;4.20;;;1.70;;
77800;SDS011;66991;50.058;14.454;2023-11-21T10:01:46;5.20;;;2.10;;
77800;SDS011;66991;50.058;14.454;2023-11-21T10:04:13;6.03;;;1.90;;
77800;SDS011;66991;50.058;14.454;2023-11-21T10:06:39;3.10;;;1.48;;
77800;SDS011;66991;50.058;14.454;2023-11-21T10:09:10;3.63;;;1.70;;
77800;SDS011;66991;50.058;14.454;2023-11-21T10:11:41;3.13;;;1.73;;
77800;SDS011;66991;50.058;14.454;2023-11-21T10:14:08;3.75;;;1.52;;
77800;SDS011;66991;50.058;14.454;2023-11-21T10:16:35;3.28;;;1.92;;
77800;SDS011;66991;50.058;14.454;2023-11-21T10:19:02;3.67;;;1.48;;
77800;SDS011;66991;50.058;14.454;2023-11-21T10:21:28;8.30;;;2.10;;
77800;SDS011;66991;50.058;14.454;2023-11-21T10:23:54;3.75;;;1.70;;
77800;SDS011;66991;50.058;14.454;2023-11-21T10:26:20;3.55;;;1.92;;
77800;SDS011;66991;50.058;14.454;2023-11-21T10:28:55;4.30;;;1.88;;
77800;SDS011;66991;50.058;14.454;2023-11-21T10:31:27;7.00;;;1.95;;
77800;SDS011;66991;50.058;14.454;2023-11-21T10:33:53;4.82;;;2.03;;
77800;SDS011;66991;50.058;14.454;2023-11-21T10:36:28;4.95;;;2.20;;
77800;SDS011;66991;50.058;14.454;2023-11-21T10:38:53;4.88;;;1.70;;
77800;SDS011;66991;50.058;14.454;2023-11-21T10:41:19;4.90;;;1.70;;
77800;SDS011;66991;50.058;14.454;2023-11-21T10:43:45;4.63;;;1.83;;
77800;SDS011;66991;50.058;14.454;2023-11-21T10:46:10;5.90;;;1.92;;
77800;SDS011;66991;50.058;14.454;2023-11-21T10:48:36;5.10;;;2.03;;
77800;SDS011;66991;50.058;14.454;2023-11-21T10:51:06;5.05;;;2.60;;
77800;SDS011;66991;50.058;14.454;2023-11-21T10:53:32;4.85;;;2.70;;
77800;SDS011;66991;50.058;14.454;2023-11-21T10:56:02;7.03;;;2.20;;
77800;SDS011;66991;50.058;14.454;2023-11-21T10:58:30;2.90;;;1.40;;
77800;SDS011;66991;50.058;14.454;2023-11-21T11:00:57;3.97;;;2.03;;
77800;SDS011;66991;50.058;14.454;2023-11-21T11:03:23;3.58;;;1.80;;
77800;SDS011;66991;50.058;14.454;2023-11-21T11:05:49;3.67;;;1.88;;
77800;SDS011;66991;50.058;14.454;2023-11-21T11:08:16;4.38;;;1.65;;
77800;SDS011;66991;50.058;14.454;2023-11-21T11:10:44;4.32;;;1.70;;
77800;SDS011;66991;50.058;14.454;2023-11-21T11:13:12;4.45;;;1.73;;
77800;SDS011;66991;50.058;14.454;2023-11-21T11:15:40;5.03;;;1.73;;
77800;SDS011;66991;50.058;14.454;2023-11-21T11:18:05;4.70;;;1.52;;
77800;SDS011;66991;50.058;14.454;2023-11-21T11:20:35;5.47;;;2.03;;
77800;SDS011;66991;50.058;14.454;2023-11-21T11:28:56;5.20;;;2.17;;
77800;SDS011;66991;50.058;14.454;2023-11-21T11:34:35;2.70;;;1.33;;
77800;SDS011;66991;50.058;14.454;2023-11-21T11:37:04;3.13;;;1.48;;
77800;SDS011;66991;50.058;14.454;2023-11-21T11:39:40;2.90;;;1.60;;
77800;SDS011;66991;50.058;14.454;2023-11-21T11:42:13;4.03;;;1.80;;
77800;SDS011;66991;50.058;14.454;2023-11-21T11:50:09;4.97;;;1.98;;
77800;SDS011;66991;50.058;14.454;2023-11-21T11:52:45;5.50;;;1.80;;
77800;SDS011;66991;50.058;14.454;2023-11-21T11:55:15;2.83;;;1.50;;
77800;SDS011;66991;50.058;14.454;2023-11-21T11:57:45;3.97;;;1.67;;
77800;SDS011;66991;50.058;14.454;2023-11-21T12:00:19;4.03;;;1.90;;
77800;SDS011;66991;50.058;14.454;2023-11-21T12:02:56;4.75;;;2.20;;
77800;SDS011;66991;50.058;14.454;2023-11-21T12:05:24;5.88;;;1.85;;
77800;SDS011;66991;50.058;14.454;2023-11-21T12:10:23;5.57;;;1.80;;
77800;SDS011;66991;50.058;14.454;2023-11-21T12:12:56;3.53;;;1.80;;
77800;SDS011;66991;50.058;14.454;2023-11-21T12:15:23;4.00;;;1.70;;
77800;SDS011;66991;50.058;14.454;2023-11-21T12:17:50;3.45;;;1.40;;
77800;SDS011;66991;50.058;14.454;2023-11-21T12:20:20;4.43;;;1.50;;
77800;SDS011;66991;50.058;14.454;2023-11-21T12:22:55;4.28;;;1.88;;
77800;SDS011;66991;50.058;14.454;2023-11-21T12:25:29;3.15;;;1.45;;
77800;SDS011;66991;50.058;14.454;2023-11-21T12:27:57;4.22;;;1.50;;
77800;SDS011;66991;50.058;14.454;2023-11-21T12:30:23;3.10;;;1.70;;
77800;SDS011;66991;50.058;14.454;2023-11-21T12:32:53;4.70;;;1.80;;
77800;SDS011;66991;50.058;14.454;2023-11-21T12:35:20;2.33;;;1.33;;
77800;SDS011;66991;50.058;14.454;2023-11-21T12:37:47;3.10;;;1.67;;
77800;SDS011;66991;50.058;14.454;2023-11-21T12:40:13;5.68;;;1.80;;
77800;SDS011;66991;50.058;14.454;2023-11-21T12:42:43;3.55;;;1.70;;
77800;SDS011;66991;50.058;14.454;2023-11-21T12:48:15;5.00;;;1.63;;
77800;SDS011;66991;50.058;14.454;2023-11-21T12:50:36;4.15;;;1.90;;
77800;SDS011;66991;50.058;14.454;2023-11-21T12:53:02;6.30;;;2.13;;
77800;SDS011;66991;50.058;14.454;2023-11-21T12:55:30;4.75;;;2.08;;
77800;SDS011;66991;50.058;14.454;2023-11-21T12:57:56;3.28;;;1.83;;
77800;SDS011;66991;50.058;14.454;2023-11-21T13:00:31;4.53;;;1.80;;
77800;SDS011;66991;50.058;14.454;2023-11-21T13:03:01;5.60;;;2.15;;
77800;SDS011;66991;50.058;14.454;2023-11-21T13:05:29;4.20;;;2.00;;
77800;SDS011;66991;50.058;14.454;2023-11-21T13:07:57;3.72;;;2.10;;
77800;SDS011;66991;50.058;14.454;2023-11-21T13:10:24;4.30;;;2.10;;
77800;SDS011;66991;50.058;14.454;2023-11-21T13:12:54;4.07;;;1.77;;
77800;SDS011;66991;50.058;14.454;2023-11-21T13:15:20;5.15;;;2.35;;
77800;SDS011;66991;50.058;14.454;2023-11-21T13:17:45;3.65;;;2.00;;
77800;SDS011;66991;50.058;14.454;2023-11-21T13:20:11;7.38;;;2.05;;
77800;SDS011;66991;50.058;14.454;2023-11-21T13:22:54;3.47;;;1.70;;
77800;SDS011;66991;50.058;14.454;2023-11-21T13:25:22;3.70;;;1.95;;
77800;SDS011;66991;50.058;14.454;2023-11-21T13:27:48;4.07;;;1.70;;
77800;SDS011;66991;50.058;14.454;2023-11-21T13:30:13;3.35;;;1.80;;
77800;SDS011;66991;50.058;14.454;2023-11-21T13:32:44;4.60;;;1.90;;
77800;SDS011;66991;50.058;14.454;2023-11-21T13:35:11;5.53;;;1.95;;
77800;SDS011;66991;50.058;14.454;2023-11-21T13:37:45;4.13;;;1.98;;
77800;SDS011;66991;50.058;14.454;2023-11-21T13:40:13;4.47;;;1.67;;
77800;SDS011;66991;50.058;14.454;2023-11-21T13:42:44;4.88;;;1.98;;
77800;SDS011;66991;50.058;14.454;2023-11-21T13:45:09;3.50;;;1.88;;
77800;SDS011;66991;50.058;14.454;2023-11-21T13:47:35;4.25;;;1.83;;
77800;SDS011;66991;50.058;14.454;2023-11-21T13:50:02;4.43;;;2.40;;
77800;SDS011;66991;50.058;14.454;2023-11-21T13:52:28;5.50;;;2.30;;
77800;SDS011;66991;50.058;14.454;2023-11-21T13:54:58;5.95;;;2.70;;
77800;SDS011;66991;50.058;14.454;2023-11-21T13:57:23;5.13;;;2.15;;
77800;SDS011;66991;50.058;14.454;2023-11-21T13:59:49;4.95;;;2.17;;
77800;SDS011;66991;50.058;14.454;2023-11-21T14:02:14;9.05;;;2.20;;
77800;SDS011;66991;50.058;14.454;2023-11-21T14:04:44;5.68;;;2.60;;
77800;SDS011;66991;50.058;14.454;2023-11-21T14:07:20;6.95;;;2.40;;
77800;SDS011;66991;50.058;14.454;2023-11-21T14:10:03;5.50;;;2.67;;
77800;SDS011;66991;50.058;14.454;2023-11-21T14:12:34;4.78;;;2.50;;
77800;SDS011;66991;50.058;14.454;2023-11-21T14:15:02;7.05;;;2.75;;
77800;SDS011;66991;50.058;14.454;2023-11-21T14:17:31;5.97;;;2.60;;
77800;SDS011;66991;50.058;14.454;2023-11-21T14:19:56;5.30;;;2.67;;
77800;SDS011;66991;50.058;14.454;2023-11-21T14:22:21;5.30;;;2.45;;
77800;SDS011;66991;50.058;14.454;2023-11-21T14:24:47;5.80;;;2.78;;
77800;SDS011;66991;50.058;14.454;2023-11-21T14:27:12;6.43;;;2.50;;
77800;SDS011;66991;50.058;14.454;2023-11-21T14:29:39;6.32;;;2.70;;
77800;SDS011;66991;50.058;14.454;2023-11-21T14:32:09;4.88;;;2.78;;
77800;SDS011;66991;50.058;14.454;2023-11-21T14:34:34;9.65;;;3.15;;
77800;SDS011;66991;50.058;14.454;2023-11-21T14:37:00;6.90;;;3.10;;
77800;SDS011;66991;50.058;14.454;2023-11-21T14:39:28;4.85;;;2.75;;
77800;SDS011;66991;50.058;14.454;2023-11-21T14:41:53;9.52;;;3.47;;
77800;SDS011;66991;50.058;14.454;2023-11-21T14:44:21;5.20;;;2.95;;
77800;SDS011;66991;50.058;14.454;2023-11-21T14:46:50;10.15;;;3.28;;
77800;SDS011;66991;50.058;14.454;2023-11-21T14:49:16;5.93;;;2.97;;
77800;SDS011;66991;50.058;14.454;2023-11-21T14:51:48;5.28;;;2.25;;
77800;SDS011;66991;50.058;14.454;2023-11-21T14:54:31;6.10;;;2.30;;